createdAt,value
2023-04-07T00:00:53.506Z,42.03
2023-04-07T00:05:56.305Z,46.23
2023-04-07T00:10:59.320Z,33.73
2023-04-07T00:16:03.422Z,32.75
2023-04-07T00:21:06.440Z,32.92
2023-04-07T00:26:09.433Z,31.77
2023-04-07T00:31:13.893Z,34.40
2023-04-07T00:36:16.982Z,33.58
2023-04-07T00:41:19.958Z,29.38
2023-04-07T00:46:24.577Z,26.58
2023-04-07T00:51:27.970Z,29.80
2023-04-07T00:56:31.044Z,30.35
2023-04-07T01:01:42.207Z,34.57
2023-04-07T01:06:49.741Z,38.47
2023-04-07T01:12:01.345Z,32.60
2023-04-07T01:17:08.281Z,42.08
2023-04-07T01:22:14.394Z,52.15
2023-04-07T01:27:23.183Z,47.53
2023-04-07T01:32:28.084Z,40.85
2023-04-07T01:37:31.215Z,50.38
2023-04-07T01:42:34.440Z,41.72
2023-04-07T01:47:39.292Z,41.50
2023-04-07T01:52:42.526Z,42.92
2023-04-07T01:57:45.583Z,39.65
2023-04-07T02:03:00.898Z,37.22
2023-04-07T02:08:06.266Z,34.25
2023-04-07T02:13:14.751Z,32.37
2023-04-07T02:18:20.036Z,38.27
2023-04-07T02:23:22.865Z,33.50
2023-04-07T02:28:25.653Z,40.30
2023-04-07T02:33:29.797Z,43.30
2023-04-07T02:38:33.073Z,44.47
2023-04-07T02:43:35.817Z,41.60
2023-04-07T02:48:39.935Z,34.20
2023-04-07T02:53:42.709Z,34.20
2023-04-07T02:58:46.641Z,37.10
2023-04-07T03:03:51.223Z,33.33
2023-04-07T03:08:59.991Z,35.78
2023-04-07T03:14:02.936Z,33.67
2023-04-07T03:19:08.974Z,34.92
2023-04-07T03:24:16.304Z,32.10
2023-04-07T03:29:19.284Z,33.30
2023-04-07T03:34:23.642Z,28.88
2023-04-07T03:39:26.791Z,25.27
2023-04-07T03:44:34.154Z,26.02
2023-04-07T03:49:38.570Z,24.67
2023-04-07T03:54:42.710Z,22.08
2023-04-07T03:59:46.152Z,25.53
2023-04-07T04:04:50.559Z,29.58
2023-04-07T04:09:54.464Z,37.88
2023-04-07T04:14:57.624Z,36.13
2023-04-07T04:20:01.957Z,31.33
2023-04-07T04:25:16.287Z,25.13
2023-04-07T04:30:23.509Z,23.67
2023-04-07T04:35:41.227Z,28.42
2023-04-07T04:40:47.806Z,28.43
2023-04-07T04:45:53.812Z,30.33
2023-04-07T04:51:01.819Z,32.73
2023-04-07T04:56:07.165Z,30.87
2023-04-07T05:01:15.677Z,27.92
2023-04-07T05:06:28.445Z,28.70
2023-04-07T05:11:34.752Z,27.90
2023-04-07T05:16:37.765Z,30.13
2023-04-07T05:21:44.086Z,25.02
2023-04-07T05:26:47.978Z,18.83
2023-04-07T05:31:50.865Z,23.88
2023-04-07T05:36:57.594Z,21.63
2023-04-07T05:42:02.261Z,26.25
2023-04-07T05:47:08.878Z,26.80
2023-04-07T05:52:14.430Z,23.30
2023-04-07T05:57:20.604Z,25.52
2023-04-07T06:02:25.198Z,27.50
2023-04-07T06:07:30.416Z,28.45
2023-04-07T06:12:33.385Z,21.25
2023-04-07T06:17:36.585Z,23.00
2023-04-07T06:22:40.919Z,21.27
2023-04-07T06:27:43.833Z,22.48
2023-04-07T06:32:47.168Z,20.98
2023-04-07T06:37:51.394Z,18.92
2023-04-07T06:42:54.794Z,15.23
2023-04-07T06:48:07.728Z,21.67
2023-04-07T06:53:12.712Z,18.75
2023-04-07T06:58:15.692Z,17.38
2023-04-07T07:03:18.731Z,18.53
2023-04-07T07:08:23.498Z,18.15
2023-04-07T07:13:28.255Z,16.83
2023-04-07T07:18:31.996Z,15.90
2023-04-07T07:23:36.258Z,20.17
2023-04-07T07:28:39.410Z,21.75
2023-04-07T07:33:44.316Z,20.20
2023-04-07T07:38:51.221Z,17.50
2023-04-07T07:43:54.099Z,15.00
2023-04-07T07:48:57.204Z,18.85
2023-04-07T07:54:02.125Z,23.70
2023-04-07T07:59:06.375Z,19.38
2023-04-07T08:04:09.310Z,17.00
2023-04-07T08:09:13.516Z,13.43
2023-04-07T08:14:16.525Z,17.30
2023-04-07T08:19:19.362Z,14.83
2023-04-07T08:24:23.566Z,13.60
2023-04-07T08:29:26.418Z,17.88
2023-04-07T08:34:29.264Z,18.50
2023-04-07T08:39:34.028Z,12.35
2023-04-07T08:44:38.244Z,16.33
2023-04-07T08:49:42.348Z,20.97
2023-04-07T08:54:46.592Z,18.60
2023-04-07T08:59:51.423Z,18.45
2023-04-07T09:04:54.294Z,16.08
2023-04-07T09:09:58.450Z,15.70
2023-04-07T09:15:01.742Z,14.83
2023-04-07T09:20:05.701Z,13.95
2023-04-07T09:25:17.472Z,14.43
2023-04-07T09:30:20.779Z,14.23
2023-04-07T09:35:24.673Z,20.17
2023-04-07T09:40:29.008Z,22.85
2023-04-07T09:45:36.163Z,22.67
2023-04-07T09:50:45.762Z,23.67
2023-04-07T09:55:51.225Z,21.47
2023-04-07T10:00:54.360Z,20.20
2023-04-07T10:05:57.227Z,26.00
2023-04-07T10:11:02.936Z,22.55
2023-04-07T10:16:08.501Z,17.80
2023-04-07T10:21:15.196Z,22.58
2023-04-07T10:26:21.443Z,22.60
2023-04-07T10:31:24.412Z,21.10
2023-04-07T10:36:28.939Z,20.70
2023-04-07T10:41:37.465Z,19.17
2023-04-07T10:47:05.730Z,19.10
2023-04-07T10:52:24.371Z,20.77
2023-04-07T10:57:29.142Z,27.40
2023-04-07T11:02:36.025Z,27.27
2023-04-07T11:08:02.574Z,34.77
2023-04-07T11:13:08.458Z,37.38
2023-04-07T11:18:17.434Z,38.40
2023-04-07T11:23:21.529Z,40.73
2023-04-07T11:28:25.865Z,41.83
2023-04-07T11:33:29.660Z,37.22
2023-04-07T11:38:37.890Z,37.47
2023-04-07T11:43:42.871Z,40.10
2023-04-07T11:48:47.257Z,36.60
2023-04-07T11:53:56.791Z,36.50
2023-04-07T11:59:02.675Z,29.55
2023-04-07T12:04:05.921Z,35.50
2023-04-07T12:09:09.779Z,42.23
2023-04-07T12:14:14.019Z,38.00
2023-04-07T12:19:17.068Z,33.83
2023-04-07T12:24:19.912Z,30.80
2023-04-07T12:29:24.250Z,32.53
2023-04-07T12:34:27.250Z,32.15
2023-04-07T12:39:30.108Z,36.17
2023-04-07T12:44:34.346Z,32.67
2023-04-07T12:49:37.285Z,33.20
2023-04-07T12:54:40.248Z,37.33
2023-04-07T12:59:44.842Z,36.97
2023-04-07T13:04:47.821Z,29.47
2023-04-07T13:09:50.815Z,35.10
2023-04-07T13:15:00.203Z,37.00
2023-04-07T13:20:04.857Z,34.10
2023-04-07T13:25:08.688Z,36.40
2023-04-07T13:30:14.281Z,45.60
2023-04-07T13:35:17.829Z,32.90
2023-04-07T13:40:20.977Z,29.80
2023-04-07T13:45:25.231Z,33.40
2023-04-07T13:50:29.043Z,30.10
2023-04-07T13:55:32.034Z,23.20
2023-04-07T14:00:38.387Z,23.70
2023-04-07T14:05:41.349Z,28.40
2023-04-07T14:10:44.322Z,27.42
2023-04-07T14:15:49.457Z,28.95
2023-04-07T14:20:52.428Z,35.80
2023-04-07T14:25:55.761Z,35.17
2023-04-07T14:31:00.128Z,29.55
2023-04-07T14:36:03.111Z,27.87
2023-04-07T14:41:10.131Z,32.28
2023-04-07T14:46:15.467Z,28.40
2023-04-07T14:51:18.442Z,32.13
2023-04-07T14:56:22.629Z,24.87
2023-04-07T15:01:27.153Z,33.17
2023-04-07T15:06:30.132Z,37.70
2023-04-07T15:11:33.836Z,29.05
2023-04-07T15:16:38.244Z,30.03
2023-04-07T15:21:41.381Z,35.28
2023-04-07T15:26:44.287Z,30.03
2023-04-07T15:31:48.656Z,33.87
2023-04-07T15:36:51.627Z,29.60
2023-04-07T15:41:54.464Z,32.55
2023-04-07T15:46:58.759Z,30.38
2023-04-07T15:52:02.143Z,33.97
2023-04-07T15:57:05.284Z,35.13
2023-04-07T16:02:10.402Z,28.20
2023-04-07T16:07:14.729Z,27.95
2023-04-07T16:12:18.469Z,28.23
2023-04-07T16:17:22.665Z,22.13
2023-04-07T16:22:26.022Z,20.73
2023-04-07T16:27:28.940Z,21.40
2023-04-07T16:32:33.412Z,19.27
2023-04-07T16:37:36.246Z,19.90
2023-04-07T16:42:39.169Z,19.85
2023-04-07T16:47:44.628Z,23.05
2023-04-07T16:52:47.976Z,22.73
2023-04-07T16:57:51.574Z,25.35
2023-04-07T17:02:56.132Z,25.35
2023-04-07T17:07:59.100Z,25.58
2023-04-07T17:13:01.933Z,21.20
2023-04-07T17:18:06.284Z,28.23
2023-04-07T17:23:10.374Z,27.00
2023-04-07T17:28:13.606Z,24.30
2023-04-07T17:33:17.867Z,29.67
2023-04-07T17:38:20.903Z,24.77
2023-04-07T17:43:23.790Z,28.93
2023-04-07T17:48:28.138Z,28.65
2023-04-07T17:53:31.252Z,29.63
2023-04-07T17:58:34.336Z,27.50
2023-04-07T18:03:38.983Z,31.93
2023-04-07T18:08:41.954Z,32.47
2023-04-07T18:13:44.813Z,30.40
2023-04-07T18:18:49.374Z,31.33
2023-04-07T18:23:52.229Z,33.33
2023-04-07T18:28:55.136Z,32.85
2023-04-07T18:33:59.281Z,29.40
2023-04-07T18:39:02.117Z,32.05
2023-04-07T18:44:05.016Z,30.10
2023-04-07T18:49:10.233Z,34.88
2023-04-07T18:54:13.343Z,35.13
2023-04-07T18:59:16.202Z,40.27
2023-04-07T19:04:20.914Z,42.13
2023-04-07T19:09:23.719Z,44.50
2023-04-07T19:14:26.496Z,41.60
2023-04-07T19:19:31.494Z,46.20
2023-04-07T19:24:34.843Z,48.53
2023-04-07T19:29:37.635Z,50.80
2023-04-07T19:34:41.860Z,45.85
2023-04-07T19:39:52.210Z,41.20
2023-04-07T19:45:04.853Z,42.63
2023-04-07T19:50:11.287Z,43.88
2023-04-07T19:55:14.566Z,46.37
2023-04-07T20:00:18.701Z,46.55
2023-04-07T20:05:26.223Z,45.45
2023-04-07T20:10:29.022Z,45.28
2023-04-07T20:15:32.003Z,41.65
2023-04-07T20:20:37.754Z,44.22
2023-04-07T20:25:40.777Z,45.53
2023-04-07T20:30:43.592Z,48.80
2023-04-07T20:35:47.871Z,40.57
2023-04-07T20:40:50.710Z,44.25
2023-04-07T20:45:53.599Z,37.45
2023-04-07T20:50:57.770Z,42.75
2023-04-07T20:56:00.608Z,38.43
2023-04-07T21:01:03.415Z,34.00
2023-04-07T21:06:07.620Z,40.55
2023-04-07T21:11:10.483Z,38.38
2023-04-07T21:16:13.452Z,41.17
2023-04-07T21:21:17.593Z,41.93
2023-04-07T21:26:20.840Z,37.58
2023-04-07T21:31:24.559Z,46.10
2023-04-07T21:36:28.832Z,41.35
2023-04-07T21:41:31.675Z,42.92
2023-04-07T21:46:34.766Z,37.58
2023-04-07T21:51:38.976Z,33.42
2023-04-07T21:56:42.641Z,35.40
2023-04-07T22:01:46.946Z,40.07
2023-04-07T22:06:51.542Z,29.65
2023-04-07T22:11:54.404Z,31.80
2023-04-07T22:16:57.221Z,33.28
2023-04-07T22:22:01.257Z,34.70
2023-04-07T22:27:04.441Z,39.35
2023-04-07T22:32:07.367Z,43.80
2023-04-07T22:37:11.522Z,34.10
2023-04-07T22:42:14.527Z,30.65
2023-04-07T22:47:17.361Z,27.80
2023-04-07T22:52:21.400Z,31.63
2023-04-07T22:57:24.136Z,32.55
2023-04-07T23:02:26.999Z,43.60
2023-04-07T23:07:31.431Z,51.58
2023-04-07T23:12:34.258Z,35.87
2023-04-07T23:17:37.074Z,39.33
2023-04-07T23:22:41.286Z,43.58
2023-04-07T23:27:44.127Z,59.20
2023-04-07T23:32:47.260Z,49.45
2023-04-07T23:37:51.448Z,43.30
2023-04-07T23:42:54.228Z,49.13
2023-04-07T23:47:57.036Z,33.67
2023-04-07T23:53:01.753Z,35.03
2023-04-07T23:58:04.553Z,37.05
